< < Back
Terminal Aerodrome Forecast


Current Version              Previous Versions:   1  2  3  4  5  6  7  8  9  

Terminal Aerodrome Forecast

404
FTUS42 KFFC 240930 AAB
TAFCSG
TAF AMD
KCSG 240930Z 2410/2506 21007KT P6SM BKN008 OVC015
      TEMPO 2410/2412 4SM BR OVC005
     FM241200 22008KT P6SM SCT012 OVC014
     FM241400 24010G17KT P6SM BKN021 OVC030
     FM241700 26011G20KT P6SM SCT035
     FM242000 29009KT P6SM SCT050=



Latest METAR

966
SAUS70 KWBC 250054
MTRCSG
METAR KCSG 250051Z 00000KT 10SM CLR 19/12 A2991 RMK AO2 SLP126
T01940117


USA.gov is the U.S. government's official web portal to all federal, state and local government web resources and services.